Time;durP1;ratioP1;P1;durP2;ratioP2;P2;SDS_P1;SDS_P2;PMS_P1;PMS_P2;Temp;Humidity;BMP_temperature;BMP_pressure;BME280_temperature;BME280_humidity;BME280_pressure;Samples;Min_cycle;Max_cycle;Signal;HPM_P1;HPM_P2
2022/11/03 00:02:27;;;;;;;15.35;8.77;;;8.20;99.90;;;;;;6171584;23;20486;-88
2022/11/03 00:04:54;;;;;;;11.32;8.52;;;8.30;99.90;;;;;;6195759;23;20213;-85
2022/11/03 00:07:22;;;;;;;10.55;8.15;;;8.30;99.90;;;;;;6192554;23;20232;-87
2022/11/03 00:09:49;;;;;;;15.48;8.35;;;8.30;99.90;;;;;;6193052;23;20189;-86
2022/11/03 00:12:17;;;;;;;12.15;8.70;;;8.20;99.90;;;;;;6168414;23;20168;-86
2022/11/03 00:14:44;;;;;;;11.82;8.73;;;8.20;99.90;;;;;;6192820;23;20227;-87
2022/11/03 00:17:11;;;;;;;12.80;7.45;;;8.20;99.90;;;;;;6168229;23;20170;-87
2022/11/03 00:19:40;;;;;;;11.55;8.13;;;8.20;99.90;;;;;;6199988;23;20161;-88
2022/11/03 00:22:10;;;;;;;9.38;7.05;;;8.20;99.90;;;;;;6202384;23;20196;-88
2022/11/03 00:24:40;;;;;;;13.93;7.63;;;8.20;99.90;;;;;;6198140;23;20292;-86
2022/11/03 00:27:08;;;;;;;14.70;8.57;;;8.10;99.90;;;;;;6169143;23;20211;-89
2022/11/03 00:29:35;;;;;;;10.45;7.78;;;7.90;99.90;;;;;;6142567;23;20274;-89
2022/11/03 00:32:02;;;;;;;13.57;8.88;;;7.90;99.90;;;;;;6192665;23;20435;-86
2022/11/03 00:34:29;;;;;;;17.33;8.55;;;7.90;99.90;;;;;;6192572;23;20232;-87
2022/11/03 00:36:56;;;;;;;16.10;9.13;;;7.90;99.90;;;;;;6191801;23;20200;-85
2022/11/03 00:39:25;;;;;;;14.27;9.20;;;8.00;99.90;;;;;;6192355;23;20185;-86
2022/11/03 00:41:53;;;;;;;16.95;9.98;;;7.90;99.90;;;;;;6192140;23;20247;-87
2022/11/03 00:44:23;;;;;;;16.00;10.43;;;7.90;99.90;;;;;;6168281;23;20180;-88
2022/11/03 00:46:50;;;;;;;13.93;9.05;;;7.90;99.90;;;;;;6193081;23;20177;-88
2022/11/03 00:49:17;;;;;;;16.80;9.88;;;7.80;99.90;;;;;;6166327;23;20687;-87
2022/11/03 00:51:45;;;;;;;13.35;9.15;;;7.70;99.90;;;;;;6196722;23;20228;-87
2022/11/03 00:54:14;;;;;;;18.60;9.63;;;7.70;99.90;;;;;;6168736;23;20173;-87
2022/11/03 00:56:43;;;;;;;19.63;10.13;;;7.60;99.90;;;;;;6167264;23;20184;-88
2022/11/03 00:59:11;;;;;;;13.80;10.80;;;7.60;99.90;;;;;;6166620;23;20224;-87
2022/11/03 01:01:43;;;;;;;13.80;10.73;;;7.60;99.90;;;;;;6168123;23;20503;-86
2022/11/03 01:07:03;;;;;;;13.50;9.25;;;7.60;99.90;;;;;;6194024;23;20472;-86
2022/11/03 01:09:42;;;;;;;14.70;10.02;;;7.60;99.90;;;;;;6090266;23;20231;-86
2022/11/03 01:12:11;;;;;;;16.50;10.30;;;7.60;99.90;;;;;;6087538;23;20179;-86
2022/11/03 01:14:45;;;;;;;11.60;10.10;;;7.50;99.90;;;;;;6077115;23;20183;-85
2022/11/03 01:25:07;;;;;;;14.40;10.25;;;7.50;99.90;;;;;;6079121;23;20265;-85
2022/11/03 01:50:46;;;;;;;14.27;10.73;;;7.20;99.90;;;;;;6196620;23;20180;-86
2022/11/03 01:53:16;;;;;;;12.02;9.65;;;7.20;99.90;;;;;;6193098;23;20398;-86
2022/11/03 01:55:47;;;;;;;11.02;9.85;;;7.20;99.90;;;;;;6191916;23;20473;-88
2022/11/03 01:58:22;;;;;;;16.75;10.35;;;7.20;99.90;;;;;;6189584;23;20188;-87
2022/11/03 02:00:52;;;;;;;21.45;10.70;;;7.20;99.90;;;;;;6191199;23;20168;-88
2022/11/03 02:03:21;;;;;;;16.45;10.38;;;7.20;99.90;;;;;;6165910;23;20192;-87
2022/11/03 02:05:50;;;;;;;15.40;11.02;;;7.20;99.90;;;;;;6165016;23;20277;-87
2022/11/03 02:08:40;;;;;;;15.57;9.38;;;7.20;99.90;;;;;;6191094;23;20184;-88
2022/11/03 02:13:54;;;;;;;19.50;12.00;;;7.20;99.90;;;;;;6191530;23;20341;-88
2022/11/03 02:16:25;;;;;;;13.85;8.60;;;7.20;99.90;;;;;;6190852;23;20204;-88
2022/11/03 02:18:54;;;;;;;13.63;10.77;;;7.20;99.90;;;;;;6191094;23;20380;-87
2022/11/03 02:21:34;;;;;;;14.73;10.35;;;7.10;99.90;;;;;;6191024;23;20289;-88
2022/11/03 02:24:12;;;;;;;15.98;9.63;;;7.00;99.90;;;;;;6165847;23;20169;-87
2022/11/03 02:26:41;;;;;;;13.63;8.68;;;7.00;99.90;;;;;;6191331;23;20180;-87
2022/11/03 02:29:08;;;;;;;16.48;9.20;;;7.00;99.90;;;;;;6191339;23;20189;-87
2022/11/03 02:31:46;;;;;;;13.30;9.75;;;6.90;99.90;;;;;;6192473;23;20181;-87
2022/11/03 02:34:30;;;;;;;15.30;10.32;;;6.90;99.90;;;;;;6192173;23;20210;-87
2022/11/03 02:37:07;;;;;;;19.55;9.60;;;6.90;99.90;;;;;;6192094;23;20165;-88
2022/11/03 02:39:45;;;;;;;14.48;10.70;;;6.80;99.90;;;;;;6192698;23;20180;-88
2022/11/03 02:42:14;;;;;;;16.63;9.90;;;6.80;99.90;;;;;;6191088;23;20196;-87
2022/11/03 02:44:43;;;;;;;14.77;9.52;;;6.80;99.90;;;;;;6197032;23;20204;-87
2022/11/03 02:47:12;;;;;;;16.25;10.50;;;6.80;99.90;;;;;;6196528;23;20185;-87
2022/11/03 02:49:49;;;;;;;20.23;11.45;;;6.80;99.90;;;;;;6168064;23;20207;-88
2022/11/03 02:52:36;;;;;;;16.95;10.05;;;6.80;99.90;;;;;;6166981;23;20243;-88
2022/11/03 02:55:42;;;;;;;16.98;10.95;;;6.90;99.90;;;;;;6173519;23;20177;-88
2022/11/03 02:58:29;;;;;;;20.92;10.50;;;6.80;99.90;;;;;;6187023;23;20168;-87
2022/11/03 03:01:03;;;;;;;13.25;10.93;;;6.70;99.90;;;;;;6211657;23;20161;-87
2022/11/03 03:03:39;;;;;;;16.70;10.90;;;6.70;99.90;;;;;;6211562;23;20241;-89
2022/11/03 03:06:34;;;;;;;18.38;11.77;;;6.70;99.90;;;;;;6180953;23;20164;-89
2022/11/03 03:09:06;;;;;;;14.30;11.20;;;6.60;99.90;;;;;;6167032;23;20212;-88
2022/11/03 03:11:36;;;;;;;15.80;11.13;;;6.40;99.90;;;;;;6192025;23;20499;-88
2022/11/03 03:14:16;;;;;;;19.02;11.05;;;6.40;99.90;;;;;;6165515;23;20181;-88
2022/11/03 03:16:49;;;;;;;15.40;9.80;;;6.50;99.90;;;;;;6165229;23;20250;-89
2022/11/03 03:19:45;;;;;;;21.00;12.27;;;6.50;99.90;;;;;;6165641;23;20167;-88
2022/11/03 03:22:33;;;;;;;19.77;11.27;;;6.50;99.90;;;;;;6190151;23;20197;-88
2022/11/03 03:25:20;;;;;;;18.70;10.32;;;6.50;99.90;;;;;;6161738;23;20185;-89
2022/11/03 03:27:52;;;;;;;14.02;10.20;;;6.30;99.90;;;;;;6165503;23;20188;-89
2022/11/03 03:30:20;;;;;;;21.52;10.63;;;6.40;99.90;;;;;;6191499;23;20161;-88
2022/11/03 03:32:51;;;;;;;22.65;10.77;;;6.50;99.90;;;;;;6191100;23;20236;-89
2022/11/03 03:35:29;;;;;;;13.27;11.18;;;6.50;99.90;;;;;;6165099;23;20169;-88
2022/11/03 03:38:03;;;;;;;22.75;10.30;;;6.30;99.90;;;;;;6191172;23;20173;-88
2022/11/03 03:40:44;;;;;;;14.55;9.77;;;6.30;99.90;;;;;;6190646;23;20168;-88
2022/11/03 03:43:17;;;;;;;11.95;10.30;;;6.40;99.90;;;;;;6164903;23;20196;-88
2022/11/03 03:45:47;;;;;;;15.82;10.30;;;6.40;99.90;;;;;;6166129;23;20177;-88
2022/11/03 03:48:16;;;;;;;15.13;10.10;;;6.40;99.90;;;;;;6193614;23;20161;-87
2022/11/03 03:50:52;;;;;;;20.23;10.48;;;6.40;99.90;;;;;;6194623;23;20187;-89
2022/11/03 03:53:29;;;;;;;14.32;9.85;;;6.20;99.90;;;;;;6198419;23;20191;-87
2022/11/03 03:55:59;;;;;;;13.18;9.00;;;6.00;99.90;;;;;;6168722;23;20208;-88
2022/11/03 03:58:27;;;;;;;17.88;8.88;;;6.20;99.90;;;;;;6191117;23;20189;-86
2022/11/03 04:01:11;;;;;;;12.35;9.18;;;6.40;99.90;;;;;;6169616;23;20505;-87
2022/11/03 04:03:38;;;;;;;19.23;8.90;;;6.30;99.90;;;;;;6193890;23;20199;-87
2022/11/03 04:06:12;;;;;;;13.20;8.20;;;6.40;99.90;;;;;;6168668;23;20216;-88
2022/11/03 04:08:39;;;;;;;12.07;8.45;;;6.30;99.90;;;;;;6168723;23;20187;-87
2022/11/03 04:22:16;;;;;;;10.15;7.82;;;6.20;99.90;;;;;;6192998;23;20580;-88
2022/11/03 04:24:48;;;;;;;16.63;8.18;;;6.10;99.90;;;;;;6190282;23;20192;-87
2022/11/03 04:27:24;;;;;;;11.80;8.95;;;6.00;99.90;;;;;;6165002;23;20193;-88
2022/11/03 04:29:58;;;;;;;12.70;8.80;;;6.10;99.90;;;;;;6166246;23;20180;-87
2022/11/03 04:32:26;;;;;;;12.57;8.88;;;6.10;99.90;;;;;;6190460;23;20173;-87
2022/11/03 04:34:53;;;;;;;12.18;10.02;;;6.00;99.90;;;;;;6164805;23;20223;-87
2022/11/03 04:37:20;;;;;;;18.15;9.18;;;6.00;99.90;;;;;;6190786;23;20264;-87
2022/11/03 04:39:47;;;;;;;10.40;7.90;;;5.90;99.90;;;;;;6165985;23;20246;-87
2022/11/03 04:42:21;;;;;;;12.25;8.57;;;5.90;99.90;;;;;;6165620;23;20422;-86
2022/11/03 04:44:48;;;;;;;25.58;9.00;;;6.00;99.90;;;;;;6193515;23;20213;-87
2022/11/03 04:47:17;;;;;;;14.98;9.77;;;5.90;99.90;;;;;;6176380;23;20237;-85
2022/11/03 04:49:46;;;;;;;10.95;7.97;;;5.80;99.90;;;;;;6174158;23;20233;-87
2022/11/03 04:52:18;;;;;;;9.65;7.25;;;5.80;99.90;;;;;;6198686;23;20384;-88
2022/11/03 04:54:48;;;;;;;15.02;8.38;;;5.60;99.90;;;;;;6170872;23;20232;-85
2022/11/03 04:57:17;;;;;;;10.15;7.22;;;5.60;99.90;;;;;;6204215;23;20204;-86
2022/11/03 04:59:46;;;;;;;13.48;8.27;;;5.60;99.90;;;;;;6205676;23;20196;-88
2022/11/03 05:02:19;;;;;;;9.93;7.15;;;5.80;99.90;;;;;;6206917;23;20499;-83
2022/11/03 05:04:47;;;;;;;11.93;7.57;;;5.80;99.90;;;;;;6199217;23;20189;-85
2022/11/03 05:07:29;;;;;;;12.27;7.55;;;5.50;99.90;;;;;;6167968;23;20231;-85
2022/11/03 05:09:56;;;;;;;10.63;8.10;;;5.60;99.90;;;;;;6192051;23;20173;-85
2022/11/03 05:12:29;;;;;;;8.80;7.43;;;5.50;99.90;;;;;;6167779;23;20389;-85
2022/11/03 05:15:06;;;;;;;14.30;7.63;;;5.50;99.90;;;;;;6166820;23;20181;-84
2022/11/03 05:17:36;;;;;;;11.18;8.18;;;5.40;99.90;;;;;;6192034;23;20179;-86
2022/11/03 05:20:05;;;;;;;13.27;7.20;;;5.40;99.90;;;;;;6165591;23;20484;-86
2022/11/03 05:22:36;;;;;;;13.57;7.50;;;5.30;99.90;;;;;;6166545;23;20509;-86
2022/11/03 05:25:30;;;;;;;8.68;7.78;;;5.30;99.90;;;;;;6168764;23;20180;-86
2022/11/03 05:27:58;;;;;;;11.07;7.60;;;5.20;99.90;;;;;;6171671;23;20204;-83
2022/11/03 05:30:26;;;;;;;9.63;7.82;;;5.30;99.90;;;;;;6193392;23;20345;-85
2022/11/03 05:32:54;;;;;;;10.00;6.90;;;5.30;99.90;;;;;;6191747;23;20196;-85
2022/11/03 05:35:23;;;;;;;11.20;6.50;;;5.20;99.90;;;;;;6192032;23;20387;-88
2022/11/03 05:37:54;;;;;;;14.75;7.88;;;5.30;99.90;;;;;;6168245;23;20196;-87
2022/11/03 05:40:24;;;;;;;12.48;9.20;;;5.30;99.90;;;;;;6192556;23;20256;-86
2022/11/03 05:43:02;;;;;;;10.88;7.65;;;5.30;99.90;;;;;;6193513;23;20208;-85
2022/11/03 05:45:39;;;;;;;13.07;10.65;;;5.20;99.90;;;;;;6171303;23;20192;-82
2022/11/03 05:48:18;;;;;;;13.60;7.95;;;5.30;99.90;;;;;;6167916;23;20484;-87
2022/11/03 05:50:46;;;;;;;18.20;8.50;;;5.40;99.90;;;;;;6193513;23;20157;-88
2022/11/03 05:53:28;;;;;;;15.20;9.20;;;5.40;99.90;;;;;;6119179;23;20179;-85
2022/11/03 05:55:58;;;;;;;15.10;8.25;;;5.40;99.90;;;;;;6167916;23;20176;-85
2022/11/03 05:58:36;;;;;;;15.77;9.70;;;5.50;99.90;;;;;;6192564;23;20185;-85
2022/11/03 06:01:13;;;;;;;11.82;8.45;;;5.40;99.90;;;;;;6165292;23;20169;-86
2022/11/03 06:03:43;;;;;;;12.93;8.90;;;5.60;99.90;;;;;;6189072;23;20235;-88
2022/11/03 06:06:23;;;;;;;15.35;8.48;;;5.50;99.90;;;;;;6191527;23;20235;-85
2022/11/03 06:09:00;;;;;;;9.35;8.45;;;5.60;99.90;;;;;;6192081;23;20161;-84
2022/11/03 06:11:32;;;;;;;13.20;10.18;;;5.50;99.90;;;;;;6189046;23;20181;-86
2022/11/03 06:14:00;;;;;;;14.45;10.32;;;5.60;99.90;;;;;;6161673;23;20177;-86
2022/11/03 06:16:37;;;;;;;14.18;9.52;;;5.40;99.90;;;;;;6140915;23;20193;-88
2022/11/03 06:19:37;;;;;;;16.02;10.90;;;5.50;99.90;;;;;;6073944;23;20195;-85
2022/11/03 06:22:18;;;;;;;20.25;10.85;;;5.60;99.90;;;;;;6071482;23;20424;-87
2022/11/03 06:24:48;;;;;;;22.45;11.05;;;5.70;99.90;;;;;;6073318;23;20178;-89
2022/11/03 06:27:22;;;;;;;17.50;9.85;;;5.70;99.90;;;;;;6071699;23;20247;-84
2022/11/03 06:29:57;;;;;;;12.48;9.70;;;5.70;99.90;;;;;;6069645;23;20171;-85
2022/11/03 06:32:29;;;;;;;16.25;10.23;;;5.80;99.90;;;;;;6069788;23;20160;-87
2022/11/03 06:34:58;;;;;;;16.77;9.25;;;5.80;99.90;;;;;;6070980;23;20179;-84
2022/11/03 06:37:33;;;;;;;16.85;9.25;;;6.00;99.90;;;;;;6138368;23;20177;-87
2022/11/03 06:40:13;;;;;;;13.25;10.05;;;6.10;99.90;;;;;;6188974;23;20230;-85
2022/11/03 06:42:42;;;;;;;13.85;9.43;;;6.20;99.90;;;;;;6205224;23;20220;-91
2022/11/03 06:45:24;;;;;;;15.00;9.85;;;6.20;99.90;;;;;;6181071;23;20225;-88
2022/11/03 06:47:55;;;;;;;14.95;9.25;;;6.30;99.90;;;;;;6200015;23;20177;-87
2022/11/03 06:50:28;;;;;;;14.30;9.60;;;6.50;99.90;;;;;;6168338;23;20162;-86
2022/11/03 06:52:57;;;;;;;16.67;9.65;;;6.50;99.90;;;;;;6164318;23;20184;-86
2022/11/03 06:55:37;;;;;;;12.23;9.90;;;6.60;99.90;;;;;;6190408;23;20193;-85
2022/11/03 06:58:33;;;;;;;12.63;9.00;;;6.80;99.90;;;;;;6192106;23;20211;-85
2022/11/03 07:01:14;;;;;;;17.98;9.70;;;7.10;99.90;;;;;;6192916;23;20393;-84
2022/11/03 07:03:43;;;;;;;9.65;8.13;;;7.30;99.90;;;;;;6162858;23;20530;-85
2022/11/03 07:06:23;;;;;;;17.77;10.18;;;7.40;99.90;;;;;;6190021;23;20196;-88
2022/11/03 07:08:57;;;;;;;12.27;8.50;;;7.50;99.90;;;;;;6188096;23;20165;-84
2022/11/03 07:11:53;;;;;;;18.42;8.80;;;7.60;99.90;;;;;;6190171;23;20178;-85
2022/11/03 07:14:26;;;;;;;15.10;8.98;;;7.80;99.90;;;;;;6191721;23;20204;-85
2022/11/03 07:16:56;;;;;;;12.50;8.30;;;7.90;99.90;;;;;;6190468;23;20191;-85
2022/11/03 07:19:40;;;;;;;15.75;8.55;;;8.00;99.90;;;;;;6164679;23;20169;-82
2022/11/03 07:22:27;;;;;;;10.23;7.38;;;8.30;99.90;;;;;;6190441;23;20276;-86
2022/11/03 07:25:04;;;;;;;10.32;7.55;;;8.80;99.90;;;;;;6165328;23;20469;-86
2022/11/03 07:27:37;;;;;;;12.00;7.07;;;9.70;99.90;;;;;;6193411;23;20169;-87
2022/11/03 07:30:16;;;;;;;9.48;6.18;;;10.80;99.90;;;;;;6193794;23;20181;-85
2022/11/03 07:32:44;;;;;;;9.30;6.78;;;11.70;99.90;;;;;;6191086;23;20161;-82
2022/11/03 07:35:31;;;;;;;8.52;7.72;;;12.30;99.90;;;;;;6192455;23;20211;-86
2022/11/03 07:38:21;;;;;;;11.07;6.55;;;13.10;99.90;;;;;;6192384;23;20173;-87
2022/11/03 07:40:50;;;;;;;11.45;5.80;;;13.50;99.90;;;;;;6180344;23;20269;-85
2022/11/03 07:43:49;;;;;;;10.55;5.82;;;13.10;99.90;;;;;;6180287;23;20196;-89
2022/11/03 07:46:19;;;;;;;7.97;5.80;;;13.70;99.90;;;;;;6205776;23;20181;-88
2022/11/03 07:48:56;;;;;;;9.15;6.30;;;14.10;99.90;;;;;;6171166;23;20173;-88
2022/11/03 07:51:36;;;;;;;12.00;7.25;;;13.70;99.90;;;;;;6189165;23;20192;-86
2022/11/03 07:54:17;;;;;;;23.58;9.10;;;13.30;99.90;;;;;;6190851;23;20193;-84
2022/11/03 07:56:48;;;;;;;11.80;7.28;;;11.70;99.90;;;;;;6190456;23;20227;-84
2022/11/03 07:59:18;;;;;;;12.45;7.50;;;11.00;99.90;;;;;;6188920;23;20184;-89
2022/11/03 08:01:52;;;;;;;10.38;6.85;;;10.60;99.90;;;;;;6187759;23;20184;-85
2022/11/03 08:04:32;;;;;;;11.40;6.78;;;10.50;99.90;;;;;;6188086;23;20199;-84
2022/11/03 08:07:02;;;;;;;12.93;7.05;;;10.50;99.90;;;;;;6187885;23;20219;-87
2022/11/03 08:09:29;;;;;;;6.38;5.75;;;11.10;99.90;;;;;;6189179;23;20468;-85
2022/11/03 08:11:55;;;;;;;11.25;7.90;;;11.70;99.90;;;;;;6187579;23;20172;-82
2022/11/03 08:14:22;;;;;;;9.38;7.63;;;12.20;99.90;;;;;;6188739;23;20196;-85
2022/11/03 08:16:49;;;;;;;17.90;7.70;;;12.60;99.90;;;;;;6190297;23;20243;-84
2022/11/03 08:19:17;;;;;;;11.85;6.75;;;13.00;99.90;;;;;;6189038;23;20208;-84
2022/11/03 08:21:44;;;;;;;13.10;6.60;;;13.50;99.90;;;;;;6189878;23;20342;-85
2022/11/03 08:24:13;;;;;;;9.90;6.45;;;14.10;99.90;;;;;;6190274;23;20232;-86
2022/11/03 08:26:40;;;;;;;11.18;6.85;;;14.40;99.90;;;;;;6190615;23;20276;-84
2022/11/03 08:29:07;;;;;;;14.13;9.10;;;14.80;99.90;;;;;;6189410;23;20243;-87
2022/11/03 08:31:34;;;;;;;7.33;4.70;;;15.00;99.90;;;;;;6189629;23;20407;-85
2022/11/03 08:34:01;;;;;;;8.20;7.40;;;14.90;99.90;;;;;;6188401;23;20407;-86
2022/11/03 08:36:29;;;;;;;10.53;5.87;;;14.80;99.90;;;;;;6188778;23;20414;-84
2022/11/03 08:38:56;;;;;;;8.95;5.15;;;14.00;99.90;;;;;;6162344;23;20394;-82
2022/11/03 08:41:23;;;;;;;4.63;3.90;;;13.50;99.90;;;;;;6185862;23;20181;-81
2022/11/03 08:43:51;;;;;;;8.30;3.38;;;13.60;99.90;;;;;;6163046;23;20209;-87
2022/11/03 08:46:19;;;;;;;6.68;4.10;;;13.80;99.90;;;;;;6189673;23;20181;-83
2022/11/03 08:48:48;;;;;;;7.80;4.40;;;14.00;99.90;;;;;;6190751;23;20410;-83
2022/11/03 08:51:15;;;;;;;6.85;4.45;;;14.40;99.90;;;;;;6191438;23;20208;-83
2022/11/03 08:53:42;;;;;;;7.05;3.88;;;14.60;99.90;;;;;;6164577;23;20381;-83
2022/11/03 08:56:11;;;;;;;9.80;4.63;;;14.40;99.90;;;;;;6189038;23;20220;-80
2022/11/03 08:58:42;;;;;;;5.20;3.85;;;13.80;99.90;;;;;;6164514;23;20169;-87
2022/11/03 09:01:12;;;;;;;7.45;4.82;;;13.40;99.90;;;;;;6188207;23;20216;-84
2022/11/03 09:03:40;;;;;;;13.77;4.88;;;13.00;99.90;;;;;;6163417;23;20227;-86
2022/11/03 09:06:10;;;;;;;8.50;5.13;;;12.70;99.90;;;;;;6163780;23;20195;-81
2022/11/03 09:08:37;;;;;;;4.93;3.30;;;12.70;99.90;;;;;;6188935;23;20234;-84
2022/11/03 09:11:24;;;;;;;4.65;3.47;;;12.50;99.90;;;;;;6189301;23;20240;-82
2022/11/03 09:13:56;;;;;;;10.27;4.45;;;12.40;99.90;;;;;;6188939;23;20245;-83
2022/11/03 09:16:23;;;;;;;4.75;3.58;;;12.40;99.90;;;;;;6188824;23;20181;-82
2022/11/03 09:18:51;;;;;;;10.88;4.88;;;12.50;99.90;;;;;;6189519;23;20185;-83
2022/11/03 09:21:19;;;;;;;7.20;3.78;;;12.60;99.90;;;;;;6190059;23;20189;-82
2022/11/03 09:23:47;;;;;;;7.82;4.55;;;12.60;99.90;;;;;;6189304;23;20445;-85
2022/11/03 09:26:16;;;;;;;6.75;4.10;;;12.60;99.90;;;;;;6162767;23;20181;-83
2022/11/03 09:28:44;;;;;;;5.03;3.53;;;12.60;99.90;;;;;;6190128;23;20185;-83
2022/11/03 09:31:11;;;;;;;2.97;2.75;;;12.60;99.90;;;;;;6190290;23;20263;-82
2022/11/03 09:33:38;;;;;;;6.85;3.78;;;12.50;99.90;;;;;;6189874;23;20184;-86
2022/11/03 09:36:07;;;;;;;13.23;3.95;;;12.60;99.90;;;;;;6188551;23;20184;-82
2022/11/03 09:38:35;;;;;;;4.60;3.53;;;12.50;99.90;;;;;;6188932;23;20184;-86
2022/11/03 09:41:05;;;;;;;7.15;3.88;;;12.50;99.90;;;;;;6163030;23;20380;-84
2022/11/03 09:43:52;;;;;;;5.85;2.30;;;12.30;99.90;;;;;;6167714;23;20200;-84
2022/11/03 09:46:21;;;;;;;5.43;3.65;;;12.30;99.90;;;;;;6190096;23;20185;-82
2022/11/03 09:48:49;;;;;;;5.75;4.28;;;12.50;99.90;;;;;;6188533;23;20185;-84
2022/11/03 09:51:20;;;;;;;10.18;8.40;;;12.50;99.90;;;;;;6189171;23;20180;-84
2022/11/03 09:54:03;;;;;;;3.67;2.83;;;12.60;99.90;;;;;;6190887;23;20185;-83
2022/11/03 09:56:34;;;;;;;7.50;3.35;;;12.80;99.90;;;;;;6163507;23;20181;-84
2022/11/03 09:59:18;;;;;;;4.40;3.20;;;12.60;99.90;;;;;;6188461;23;20173;-83
2022/11/03 10:01:48;;;;;;;9.07;4.60;;;12.50;99.90;;;;;;6188924;23;20176;-83
2022/11/03 10:04:25;;;;;;;3.85;3.30;;;12.60;99.90;;;;;;6189454;23;20210;-83
2022/11/03 10:06:56;;;;;;;6.55;3.95;;;12.60;99.90;;;;;;6189026;23;20436;-87
2022/11/03 10:09:24;;;;;;;4.00;3.45;;;12.60;99.90;;;;;;6189727;23;20518;-85
2022/11/03 10:11:54;;;;;;;4.13;3.15;;;12.60;99.90;;;;;;6162650;23;20176;-85
2022/11/03 10:14:23;;;;;;;5.57;3.78;;;12.60;99.90;;;;;;6188992;23;20221;-84
2022/11/03 10:17:00;;;;;;;4.15;3.65;;;12.60;99.90;;;;;;6162705;23;20188;-86
2022/11/03 10:19:27;;;;;;;4.13;3.03;;;12.60;99.90;;;;;;6189268;23;20168;-85
2022/11/03 10:21:57;;;;;;;3.70;3.40;;;12.70;99.90;;;;;;6161916;23;20224;-86
2022/11/03 10:24:24;;;;;;;6.30;4.30;;;12.60;99.90;;;;;;6162886;23;20247;-87
2022/11/03 10:26:54;;;;;;;3.92;3.10;;;12.70;99.90;;;;;;6162883;23;20189;-86
2022/11/03 10:30:17;;;;;;;3.78;2.80;;;12.80;99.90;;;;;;6203329;23;20197;-84
2022/11/03 10:33:23;;;;;;;6.75;4.43;;;12.80;99.90;;;;;;6206198;23;20188;-88
2022/11/03 10:35:50;;;;;;;9.10;3.40;;;12.80;99.90;;;;;;6168635;23;20357;-89
2022/11/03 10:38:30;;;;;;;11.15;4.45;;;12.80;99.90;;;;;;6187997;23;20267;-82
2022/11/03 10:41:17;;;;;;;7.38;4.20;;;12.70;99.90;;;;;;6163621;23;20172;-84
2022/11/03 10:43:58;;;;;;;6.60;3.72;;;12.80;99.90;;;;;;6162505;23;20504;-83
2022/11/03 10:46:24;;;;;;;5.18;2.70;;;12.80;99.90;;;;;;6161962;23;20168;-83
2022/11/03 10:49:16;;;;;;;6.88;3.42;;;12.70;99.90;;;;;;6188458;23;20180;-80
2022/11/03 10:51:51;;;;;;;6.32;3.92;;;12.80;99.90;;;;;;6188453;23;20193;-85
2022/11/03 10:54:21;;;;;;;5.45;3.42;;;12.80;99.90;;;;;;6187807;23;20200;-82
2022/11/03 10:56:51;;;;;;;5.65;3.90;;;12.90;99.90;;;;;;6188595;23;20215;-85
2022/11/03 10:59:23;;;;;;;5.53;3.25;;;12.70;99.90;;;;;;6162303;23;20203;-84
2022/11/03 11:01:52;;;;;;;6.85;4.00;;;12.70;99.90;;;;;;6188406;23;20239;-86
2022/11/03 11:04:20;;;;;;;9.70;5.32;;;12.70;99.90;;;;;;6164419;23;20212;-85
2022/11/03 11:06:47;;;;;;;3.92;2.72;;;12.80;99.90;;;;;;6162993;23;20185;-86
2022/11/03 11:09:25;;;;;;;5.50;4.28;;;12.90;99.90;;;;;;6189799;23;20543;-87
2022/11/03 11:12:10;;;;;;;9.40;3.50;;;12.90;99.90;;;;;;6188280;23;20192;-84
2022/11/03 11:14:49;;;;;;;7.28;3.40;;;12.90;99.90;;;;;;6184266;23;20200;-82
2022/11/03 11:17:37;;;;;;;7.20;4.05;;;13.00;99.90;;;;;;6189895;23;20550;-81
2022/11/03 11:20:28;;;;;;;4.30;3.03;;;13.00;99.90;;;;;;6191678;23;20255;-84
2022/11/03 11:23:28;;;;;;;6.88;3.05;;;13.00;99.90;;;;;;6193357;23;20428;-83
2022/11/03 11:26:18;;;;;;;5.50;3.28;;;13.00;99.90;;;;;;6189609;23;20187;-83
2022/11/03 11:29:07;;;;;;;2.90;2.60;;;13.10;99.90;;;;;;6189132;23;20413;-83
2022/11/03 11:32:18;;;;;;;5.68;4.15;;;13.20;99.90;;;;;;6166530;23;20181;-86
2022/11/03 11:34:47;;;;;;;9.93;3.30;;;13.20;99.90;;;;;;6193755;23;20249;-87
2022/11/03 11:37:15;;;;;;;7.20;2.78;;;13.20;99.90;;;;;;6193478;23;20508;-84
2022/11/03 11:39:45;;;;;;;4.75;2.50;;;13.30;99.90;;;;;;6190018;23;20192;-86
2022/11/03 11:42:18;;;;;;;7.60;3.00;;;13.30;99.90;;;;;;6206562;23;20153;-87
2022/11/03 11:44:48;;;;;;;6.55;2.90;;;13.30;99.90;;;;;;6173463;23;20215;-83
2022/11/03 11:47:47;;;;;;;5.63;2.88;;;13.30;99.90;;;;;;6190215;23;20365;-83
2022/11/03 11:50:31;;;;;;;6.78;2.67;;;13.40;99.90;;;;;;6166134;23;20215;-83
2022/11/03 11:53:10;;;;;;;6.15;3.50;;;13.50;99.90;;;;;;6191845;23;20184;-87
2022/11/03 11:55:53;;;;;;;4.47;3.58;;;13.60;99.90;;;;;;6191663;23;20434;-83
2022/11/03 11:58:46;;;;;;;5.05;2.72;;;13.70;99.90;;;;;;6190276;23;20189;-84
2022/11/03 12:01:29;;;;;;;4.82;2.55;;;13.70;99.90;;;;;;6165486;23;20165;-83
2022/11/03 12:04:00;;;;;;;4.10;2.60;;;13.70;99.90;;;;;;6191202;23;20193;-83
2022/11/03 12:06:33;;;;;;;3.65;2.30;;;13.80;99.90;;;;;;6190677;23;20181;-84
2022/11/03 12:09:18;;;;;;;6.10;3.47;;;13.80;99.90;;;;;;6165420;23;20492;-84
2022/11/03 12:11:52;;;;;;;5.95;2.90;;;13.80;99.90;;;;;;6165496;23;20169;-86
2022/11/03 12:14:33;;;;;;;5.15;2.65;;;13.80;99.90;;;;;;6166462;23;20444;-84
2022/11/03 12:17:24;;;;;;;5.53;2.67;;;13.80;99.90;;;;;;6165167;23;20380;-85
2022/11/03 12:19:58;;;;;;;5.30;2.75;;;13.80;99.90;;;;;;6170448;23;20301;-84
2022/11/03 12:22:25;;;;;;;5.03;2.40;;;13.90;99.90;;;;;;6167934;23;20169;-86
2022/11/03 12:24:52;;;;;;;9.32;3.38;;;13.80;99.90;;;;;;6193455;23;20204;-85
2022/11/03 12:27:41;;;;;;;10.80;3.20;;;13.90;99.90;;;;;;6199495;23;20196;-84
2022/11/03 12:30:17;;;;;;;3.70;2.88;;;13.90;99.90;;;;;;6207136;23;20212;-85
2022/11/03 12:32:46;;;;;;;7.38;3.58;;;13.80;99.90;;;;;;6206401;23;20180;-91
2022/11/03 12:35:13;;;;;;;5.75;3.20;;;13.90;99.90;;;;;;6172104;23;20424;-90
2022/11/03 12:37:41;;;;;;;4.18;2.75;;;13.80;99.90;;;;;;6197152;23;20566;-84
2022/11/03 12:40:12;;;;;;;4.22;2.47;;;13.80;99.90;;;;;;6166214;23;20185;-84
2022/11/03 12:42:39;;;;;;;4.65;2.65;;;13.90;99.90;;;;;;6191002;23;20173;-84
2022/11/03 12:45:09;;;;;;;7.32;3.83;;;13.90;99.90;;;;;;6191285;23;20299;-83
2022/11/03 12:47:36;;;;;;;5.57;3.25;;;13.90;99.90;;;;;;6164830;23;20211;-85
2022/11/03 12:50:03;;;;;;;4.40;2.50;;;13.90;99.90;;;;;;6191244;23;20184;-84
2022/11/03 12:52:30;;;;;;;6.95;2.97;;;13.90;99.90;;;;;;6140980;23;20192;-85
2022/11/03 12:54:57;;;;;;;5.03;2.30;;;13.90;99.90;;;;;;6190175;23;20224;-85
2022/11/03 12:57:27;;;;;;;8.20;3.88;;;13.90;99.90;;;;;;6192503;23;20185;-86
2022/11/03 12:59:54;;;;;;;7.97;3.28;;;13.80;99.90;;;;;;6165531;23;20224;-85
2022/11/03 13:02:22;;;;;;;4.25;3.55;;;13.90;99.90;;;;;;6166789;23;20184;-85
2022/11/03 13:04:49;;;;;;;6.03;3.22;;;14.10;99.90;;;;;;6191477;23;20212;-84
2022/11/03 13:07:17;;;;;;;7.22;2.90;;;13.90;99.90;;;;;;6201127;23;20191;-87
2022/11/03 13:10:00;;;;;;;5.60;3.05;;;14.00;99.90;;;;;;6206760;23;20157;-89
2022/11/03 13:12:31;;;;;;;5.57;2.85;;;14.00;99.90;;;;;;6188119;23;20234;-84
2022/11/03 13:15:01;;;;;;;6.60;2.70;;;14.10;99.90;;;;;;6191165;23;20165;-87
2022/11/03 13:17:29;;;;;;;3.50;2.30;;;13.90;99.90;;;;;;6191155;23;20232;-86
2022/11/03 13:20:17;;;;;;;2.97;2.17;;;13.90;99.90;;;;;;6169837;23;20185;-85
2022/11/03 13:22:44;;;;;;;8.50;2.80;;;13.90;99.90;;;;;;6195424;23;20184;-84
2022/11/03 13:25:13;;;;;;;5.30;3.53;;;14.00;99.90;;;;;;6191074;23;20546;-86
2022/11/03 13:27:41;;;;;;;6.70;4.05;;;13.90;99.90;;;;;;6190079;23;20248;-86
2022/11/03 13:30:09;;;;;;;4.45;2.58;;;13.90;99.90;;;;;;6164670;23;20223;-86
2022/11/03 13:32:37;;;;;;;7.05;3.30;;;13.90;99.90;;;;;;6190926;23;20384;-87
2022/11/03 13:35:04;;;;;;;4.97;2.85;;;13.70;99.90;;;;;;6190577;23;20224;-87
2022/11/03 13:37:41;;;;;;;7.35;3.72;;;13.80;99.90;;;;;;6190121;23;20175;-85
2022/11/03 13:40:15;;;;;;;5.75;3.20;;;13.80;99.90;;;;;;6163974;23;20169;-84
2022/11/03 13:43:03;;;;;;;4.28;2.55;;;13.80;99.90;;;;;;6189146;23;20185;-84
2022/11/03 13:45:31;;;;;;;5.45;2.55;;;13.70;99.90;;;;;;6189206;23;20243;-85
2022/11/03 13:48:04;;;;;;;5.60;3.50;;;13.60;99.90;;;;;;6163405;23;20308;-84
2022/11/03 13:50:55;;;;;;;5.55;3.75;;;13.70;99.90;;;;;;6192329;23;20232;-86
2022/11/03 13:53:23;;;;;;;5.32;3.40;;;13.60;99.90;;;;;;6141578;23;20357;-84
2022/11/03 13:56:11;;;;;;;5.55;4.97;;;13.50;99.90;;;;;;6190491;23;20196;-85
2022/11/03 13:58:49;;;;;;;8.35;4.63;;;13.40;99.90;;;;;;6164751;23;20169;-86
2022/11/03 14:01:37;;;;;;;11.73;4.65;;;13.30;99.90;;;;;;6190237;23;20196;-89
2022/11/03 14:04:04;;;;;;;6.45;4.00;;;13.30;99.90;;;;;;6190027;23;20185;-82
2022/11/03 14:06:51;;;;;;;7.03;4.70;;;13.20;99.90;;;;;;6191552;23;20228;-84
2022/11/03 14:09:23;;;;;;;6.95;5.45;;;13.30;99.90;;;;;;6190854;23;20212;-85